Time;durP1;ratioP1;P1;durP2;ratioP2;P2;SDS_P1;SDS_P2;PMS_P1;PMS_P2;Temp;Humidity;BMP_temperature;BMP_pressure;BME280_temperature;BME280_humidity;BME280_pressure;Samples;Min_cycle;Max_cycle;Signal;HPM_P1;HPM_P2
2024/01/19 00:01:23;;;;;;;;;34.75;26.00;;;;;-145.10;100.00;63789.38;5073576;27;45356;-68
2024/01/19 00:03:48;;;;;;;;;28.50;27.50;;;;;-145.10;100.00;63789.38;5070708;27;45358;-68
2024/01/19 00:06:16;;;;;;;;;30.75;23.75;;;;;-145.10;100.00;63789.38;5091179;27;61812;-67
2024/01/19 00:08:42;;;;;;;;;27.75;22.00;;;;;-145.10;100.00;63789.38;5089866;27;45429;-67
2024/01/19 00:11:13;;;;;;;;;28.00;20.50;;;;;-145.10;100.00;63789.38;5093052;27;45370;-67
2024/01/19 00:13:38;;;;;;;;;30.00;27.00;;;;;-145.10;100.00;63789.38;5098342;27;45280;-66
2024/01/19 00:16:03;;;;;;;;;34.25;27.00;;;;;-145.10;100.00;63789.38;5085083;27;62373;-67
2024/01/19 00:18:29;;;;;;;;;26.25;21.50;;;;;-145.10;100.00;63789.38;5088685;27;70853;-67
2024/01/19 00:20:54;;;;;;;;;38.25;27.00;;;;;-145.10;100.00;63789.38;5068197;27;45722;-67
2024/01/19 00:23:19;;;;;;;;;31.00;25.50;;;;;-145.10;100.00;63789.38;5091352;27;72349;-67
2024/01/19 00:25:45;;;;;;;;;30.00;23.50;;;;;-145.10;100.00;63789.38;5060262;27;76170;-67
2024/01/19 00:28:10;;;;;;;;;29.75;26.75;;;;;-145.10;100.00;63789.38;5093406;27;46082;-67
2024/01/19 00:30:35;;;;;;;;;39.25;30.00;;;;;-145.10;100.00;63789.38;5092373;27;53392;-67
2024/01/19 00:33:01;;;;;;;;;32.00;27.50;;;;;-145.10;100.00;63789.38;5071416;27;45517;-67
2024/01/19 00:35:26;;;;;;;;;33.50;28.75;;;;;-145.10;100.00;63789.38;5096264;27;73616;-67
2024/01/19 00:37:51;;;;;;;;;30.00;21.33;;;;;-145.10;100.00;63789.38;5072401;27;72144;-67
2024/01/19 00:40:17;;;;;;;;;36.75;21.75;;;;;-145.10;100.00;63789.38;5078443;27;69413;-67
2024/01/19 00:42:43;;;;;;;;;24.50;21.25;;;;;-145.10;100.00;63789.38;5071547;28;64048;-67
2024/01/19 00:45:09;;;;;;;;;20.75;20.25;;;;;-145.10;100.00;63789.38;5080782;27;46139;-67
2024/01/19 00:47:35;;;;;;;;;19.50;18.50;;;;;-145.10;100.00;63789.38;5057092;28;45443;-67
2024/01/19 00:50:01;;;;;;;;;31.00;27.00;;;;;-145.10;100.00;63789.38;5077492;27;45934;-67
2024/01/19 00:52:27;;;;;;;;;28.50;22.50;;;;;-145.10;100.00;63789.38;5073235;27;45315;-67
2024/01/19 00:54:52;;;;;;;;;19.75;19.00;;;;;-145.10;100.00;63789.38;5091076;27;45537;-68
2024/01/19 00:57:18;;;;;;;;;28.25;25.00;;;;;-145.10;100.00;63789.38;5070151;28;45354;-68
2024/01/19 00:59:43;;;;;;;;;33.75;26.25;;;;;-145.10;100.00;63789.38;5092932;27;63660;-68
2024/01/19 01:02:08;;;;;;;;;27.75;21.25;;;;;-145.10;100.00;63789.38;5093463;27;65996;-68
2024/01/19 01:04:33;;;;;;;;;27.75;23.50;;;;;-145.10;100.00;63789.38;5074995;27;71664;-68
2024/01/19 01:06:59;;;;;;;;;27.50;22.50;;;;;-145.10;100.00;63789.38;5084349;27;65975;-69
2024/01/19 01:09:25;;;;;;;;;30.25;24.00;;;;;-145.10;100.00;63789.38;5093079;27;49028;-69
2024/01/19 01:11:50;;;;;;;;;30.00;27.50;;;;;-145.10;100.00;63789.38;5084863;27;63726;-68
2024/01/19 01:14:15;;;;;;;;;30.50;27.00;;;;;-145.10;100.00;63789.38;5072386;28;57041;-68
2024/01/19 01:16:41;;;;;;;;;33.50;26.00;;;;;-145.10;100.00;63789.38;5076257;27;45422;-68
2024/01/19 01:19:06;;;;;;;;;34.75;29.25;;;;;-145.10;100.00;63789.38;5063800;27;45486;-69
2024/01/19 01:21:32;;;;;;;;;37.67;27.33;;;;;-145.10;100.00;63789.38;5090756;27;66851;-67
2024/01/19 01:23:57;;;;;;;;;37.25;26.50;;;;;-145.10;100.00;63789.38;5075857;27;45359;-67
2024/01/19 01:26:22;;;;;;;;;25.50;23.50;;;;;-145.10;100.00;63789.38;5084673;27;73245;-68
2024/01/19 01:28:48;;;;;;;;;25.00;19.67;;;;;-145.10;100.00;63789.38;5088135;27;68046;-68
2024/01/19 01:31:13;;;;;;;;;28.75;22.50;;;;;-145.10;100.00;63789.38;5073004;27;46715;-68
2024/01/19 01:33:39;;;;;;;;;30.25;24.00;;;;;-145.10;100.00;63789.38;5090231;27;45306;-68
2024/01/19 01:36:04;;;;;;;;;34.25;24.25;;;;;-145.10;100.00;63789.38;5081387;27;45332;-67
2024/01/19 01:38:30;;;;;;;;;31.50;26.75;;;;;-145.10;100.00;63789.38;5092939;27;45980;-67
2024/01/19 01:40:55;;;;;;;;;29.00;24.50;;;;;-145.10;100.00;63789.38;5095936;27;46955;-67
2024/01/19 01:43:25;;;;;;;;;26.00;20.00;;;;;-145.10;100.00;63789.38;5090961;27;45309;-68
2024/01/19 01:45:51;;;;;;;;;33.00;23.25;;;;;-145.10;100.00;63789.38;5094350;27;45380;-68
2024/01/19 01:48:18;;;;;;;;;29.25;26.00;;;;;-145.10;100.00;63789.38;5068343;27;45518;-68
2024/01/19 01:50:44;;;;;;;;;34.75;26.00;;;;;-145.10;100.00;63789.38;5062150;27;45701;-68
2024/01/19 01:53:09;;;;;;;;;33.75;28.25;;;;;-145.10;100.00;63789.38;5084452;27;74745;-68
2024/01/19 01:55:35;;;;;;;;;32.50;24.75;;;;;-145.10;100.00;63789.38;5081901;27;73025;-68
2024/01/19 01:58:01;;;;;;;;;27.50;20.50;;;;;-145.10;100.00;63789.38;5060145;27;45613;-68
2024/01/19 02:00:29;;;;;;;;;29.25;24.00;;;;;-145.10;100.00;63789.38;5079447;27;45916;-68
2024/01/19 02:02:54;;;;;;;;;27.50;23.75;;;;;-145.10;100.00;63789.38;5077761;27;45493;-68
2024/01/19 02:05:20;;;;;;;;;33.50;25.50;;;;;-145.10;100.00;63789.38;5079795;27;73001;-68
2024/01/19 02:07:45;;;;;;;;;34.25;22.00;;;;;-145.10;100.00;63789.38;5094491;27;45263;-67
2024/01/19 02:10:10;;;;;;;;;34.00;26.33;;;;;-145.10;100.00;63789.38;5094231;27;73239;-68
2024/01/19 02:12:37;;;;;;;;;30.00;26.25;;;;;-145.10;100.00;63789.38;5082235;27;47023;-67
2024/01/19 02:15:02;;;;;;;;;33.50;26.25;;;;;-145.10;100.00;63789.38;5072699;27;53433;-68
2024/01/19 02:17:28;;;;;;;;;31.75;27.00;;;;;-145.10;100.00;63789.38;5078114;27;45486;-68
2024/01/19 02:19:53;;;;;;;;;32.00;25.33;;;;;-145.10;100.00;63789.38;5091227;27;71690;-68
2024/01/19 02:22:20;;;;;;;;;39.25;25.75;;;;;-145.10;100.00;63789.38;5096712;27;45390;-68
2024/01/19 02:24:45;;;;;;;;;36.25;24.75;;;;;-145.10;100.00;63789.38;5098640;27;45882;-68
2024/01/19 02:27:10;;;;;;;;;39.00;31.75;;;;;-145.10;100.00;63789.38;5086434;27;45403;-67
2024/01/19 02:29:36;;;;;;;;;33.50;26.75;;;;;-145.10;100.00;63789.38;5076111;27;45450;-68
2024/01/19 02:32:01;;;;;;;;;41.50;29.50;;;;;-145.10;100.00;63789.38;5082301;27;67761;-68
2024/01/19 02:34:26;;;;;;;;;34.75;26.00;;;;;-145.10;100.00;63789.38;5077899;27;67008;-68
2024/01/19 02:36:52;;;;;;;;;35.25;30.00;;;;;-145.10;100.00;63789.38;5080666;27;56219;-68
2024/01/19 02:39:17;;;;;;;;;34.75;27.25;;;;;-145.10;100.00;63789.38;5091713;27;64760;-68
2024/01/19 02:41:43;;;;;;;;;29.50;26.75;;;;;-145.10;100.00;63789.38;5084928;27;46057;-66
2024/01/19 02:44:08;;;;;;;;;34.25;26.75;;;;;-145.10;100.00;63789.38;5083697;27;45570;-67
2024/01/19 02:46:38;;;;;;;;;40.25;30.00;;;;;-145.10;100.00;63789.38;5088172;27;58713;-67
2024/01/19 02:49:03;;;;;;;;;35.25;31.75;;;;;-145.10;100.00;63789.38;5085978;27;45454;-67
2024/01/19 02:51:28;;;;;;;;;28.33;24.33;;;;;-145.10;100.00;63789.38;5084625;27;74404;-67
2024/01/19 02:53:54;;;;;;;;;35.33;27.00;;;;;-145.10;100.00;63789.38;5076266;27;70412;-67
2024/01/19 02:56:19;;;;;;;;;34.33;29.33;;;;;-145.10;100.00;63789.38;5101692;27;68326;-68
2024/01/19 02:58:44;;;;;;;;;38.33;28.67;;;;;-145.10;100.00;63789.38;5071599;27;68335;-68
2024/01/19 03:01:11;;;;;;;;;33.25;26.50;;;;;-145.10;100.00;63789.38;5082668;27;45375;-68
2024/01/19 03:03:36;;;;;;;;;39.75;31.75;;;;;-145.10;100.00;63789.38;5094676;27;63687;-67
2024/01/19 03:06:02;;;;;;;;;41.67;30.33;;;;;-145.10;100.00;63789.38;5079883;27;65117;-68
2024/01/19 03:08:27;;;;;;;;;33.00;26.75;;;;;-145.10;100.00;63789.38;5084726;27;45462;-67
2024/01/19 03:10:55;;;;;;;;;27.67;22.33;;;;;-145.10;100.00;63789.38;5079290;27;75647;-68
2024/01/19 03:13:20;;;;;;;;;39.50;31.75;;;;;-145.10;100.00;63789.38;5075565;27;45843;-67
2024/01/19 03:15:45;;;;;;;;;32.00;26.50;;;;;-145.10;100.00;63789.38;5079045;27;69051;-67
2024/01/19 03:18:11;;;;;;;;;36.75;27.00;;;;;-145.10;100.00;63789.38;5091375;27;62534;-67
2024/01/19 03:20:36;;;;;;;;;34.67;29.00;;;;;-145.10;100.00;63789.38;5059616;27;72336;-67
2024/01/19 03:23:01;;;;;;;;;37.00;30.33;;;;;-145.10;100.00;63789.38;5073593;27;73334;-67
2024/01/19 03:25:27;;;;;;;;;33.25;27.75;;;;;-145.10;100.00;63789.38;5078822;27;45558;-67
2024/01/19 03:27:52;;;;;;;;;37.75;26.25;;;;;-145.10;100.00;63789.38;5071448;27;45288;-67
2024/01/19 03:30:18;;;;;;;;;35.33;29.67;;;;;-145.10;100.00;63789.38;5093426;27;68646;-67
2024/01/19 03:32:43;;;;;;;;;25.25;21.50;;;;;-145.10;100.00;63789.38;5094928;27;45251;-67
2024/01/19 03:35:08;;;;;;;;;32.75;24.25;;;;;-145.10;100.00;63789.38;5089804;27;56313;-67
2024/01/19 03:37:34;;;;;;;;;29.50;23.25;;;;;-145.10;100.00;63789.38;5097984;27;64737;-68
2024/01/19 03:39:59;;;;;;;;;30.75;23.50;;;;;-145.10;100.00;63789.38;5095556;27;45371;-68
2024/01/19 03:42:28;;;;;;;;;28.50;21.75;;;;;-145.10;100.00;63789.38;5070102;27;45241;-68
2024/01/19 03:44:54;;;;;;;;;32.25;25.75;;;;;-145.10;100.00;63789.38;5069664;27;45714;-68
2024/01/19 03:47:19;;;;;;;;;30.25;24.25;;;;;-145.10;100.00;63789.38;5091285;27;45361;-67
2024/01/19 03:49:44;;;;;;;;;29.67;22.67;;;;;-145.10;100.00;63789.38;5071257;28;74384;-67
2024/01/19 03:52:11;;;;;;;;;31.25;25.75;;;;;-145.10;100.00;63789.38;5095907;27;54111;-67
2024/01/19 03:54:36;;;;;;;;;15.50;8.00;;;;;-145.10;100.00;63789.38;5093883;27;45300;-67
2024/01/19 03:57:04;;;;;;;;;33.00;24.50;;;;;-145.10;100.00;63789.38;5076872;27;53293;-67
2024/01/19 03:59:29;;;;;;;;;37.00;27.00;;;;;-145.10;100.00;63789.38;5075781;28;46567;-67
2024/01/19 04:01:55;;;;;;;;;35.67;24.33;;;;;-145.10;100.00;63789.38;5074138;27;69241;-67
2024/01/19 04:04:21;;;;;;;;;36.75;27.75;;;;;-145.10;100.00;63789.38;5070012;27;45209;-67
2024/01/19 04:06:46;;;;;;;;;29.50;24.50;;;;;-145.10;100.00;63789.38;5086971;27;45258;-67
2024/01/19 04:09:15;;;;;;;;;31.25;26.00;;;;;-145.10;100.00;63789.38;5093503;27;45484;-68
2024/01/19 04:11:40;;;;;;;;;34.50;23.50;;;;;-145.10;100.00;63789.38;5070680;27;46076;-67
2024/01/19 04:14:06;;;;;;;;;36.25;27.50;;;;;-145.10;100.00;63789.38;5080850;27;60177;-67
2024/01/19 04:16:31;;;;;;;;;36.67;27.00;;;;;-145.10;100.00;63789.38;5091257;27;66935;-66
2024/01/19 04:18:56;;;;;;;;;21.75;19.00;;;;;-145.10;100.00;63789.38;5084586;27;45922;-67
2024/01/19 04:21:22;;;;;;;;;28.00;25.67;;;;;-145.10;100.00;63789.38;5088192;27;72029;-67
2024/01/19 04:23:48;;;;;;;;;34.50;25.75;;;;;-145.10;100.00;63789.38;5077078;27;49920;-67
2024/01/19 04:26:13;;;;;;;;;35.75;29.75;;;;;-145.10;100.00;63789.38;5080645;27;71990;-67
2024/01/19 04:28:41;;;;;;;;;37.00;27.25;;;;;-145.10;100.00;63789.38;5073739;27;77805;-69
2024/01/19 04:31:07;;;;;;;;;29.50;26.75;;;;;-145.10;100.00;63789.38;5082843;27;45339;-67
2024/01/19 04:33:33;;;;;;;;;32.75;26.00;;;;;-145.10;100.00;63789.38;5083875;27;68145;-67
2024/01/19 04:35:58;;;;;;;;;31.00;28.25;;;;;-145.10;100.00;63789.38;5098609;27;45635;-67
2024/01/19 04:38:23;;;;;;;;;34.75;26.25;;;;;-145.10;100.00;63789.38;5084786;27;77790;-66
2024/01/19 04:40:49;;;;;;;;;34.00;26.25;;;;;-145.10;100.00;63789.38;5086862;27;54564;-67
2024/01/19 04:43:14;;;;;;;;;38.00;29.50;;;;;-145.10;100.00;63789.38;5088451;27;45402;-69
2024/01/19 04:45:39;;;;;;;;;30.67;26.00;;;;;-145.10;100.00;63789.38;5094006;27;69519;-67
2024/01/19 04:48:05;;;;;;;;;27.67;25.00;;;;;-145.10;100.00;63789.38;5074683;27;75035;-67
2024/01/19 04:50:30;;;;;;;;;33.00;28.00;;;;;-145.10;100.00;63789.38;5088581;27;45277;-67
2024/01/19 04:52:56;;;;;;;;;32.50;26.25;;;;;-145.10;100.00;63789.38;5070120;27;45480;-67
2024/01/19 04:55:21;;;;;;;;;31.00;25.33;;;;;-145.10;100.00;63789.38;5087552;27;69824;-67
2024/01/19 04:57:46;;;;;;;;;35.25;27.25;;;;;-145.10;100.00;63789.38;5054803;27;45278;-68
2024/01/19 05:00:13;;;;;;;;;35.00;29.25;;;;;-145.10;100.00;63789.38;5092500;27;45465;-67
2024/01/19 05:02:38;;;;;;;;;33.75;28.50;;;;;-145.10;100.00;63789.38;5087032;27;45286;-68
2024/01/19 05:05:04;;;;;;;;;29.75;24.75;;;;;-145.10;100.00;63789.38;5078677;27;45803;-68
2024/01/19 05:07:29;;;;;;;;;37.25;26.75;;;;;-145.10;100.00;63789.38;5068523;27;45603;-68
2024/01/19 05:09:54;;;;;;;;;41.50;29.75;;;;;-145.10;100.00;63789.38;5095321;27;45397;-67
2024/01/19 05:12:20;;;;;;;;;41.75;30.75;;;;;-145.10;100.00;63789.38;5087190;27;45457;-67
2024/01/19 05:14:46;;;;;;;;;31.25;27.25;;;;;-145.10;100.00;63789.38;5084245;27;70528;-66
2024/01/19 05:17:11;;;;;;;;;41.00;32.75;;;;;-145.10;100.00;63789.38;5074561;27;46952;-67
2024/01/19 05:19:36;;;;;;;;;35.75;32.75;;;;;-145.10;100.00;63789.38;5096920;27;45455;-67
2024/01/19 05:22:02;;;;;;;;;39.00;30.67;;;;;-145.10;100.00;63789.38;5078550;27;69945;-67
2024/01/19 05:24:27;;;;;;;;;43.00;33.50;;;;;-145.10;100.00;63789.38;5083241;27;45447;-67
2024/01/19 05:26:53;;;;;;;;;37.00;28.00;;;;;-145.10;100.00;63789.38;5096339;27;75395;-67
2024/01/19 05:29:18;;;;;;;;;40.25;30.00;;;;;-145.10;100.00;63789.38;5096125;27;66084;-66
2024/01/19 05:31:43;;;;;;;;;33.25;28.25;;;;;-145.10;100.00;63789.38;5093296;27;64818;-67
2024/01/19 05:34:08;;;;;;;;;32.67;27.67;;;;;-145.10;100.00;63789.38;5093810;27;69327;-67
2024/01/19 05:36:34;;;;;;;;;44.50;31.50;;;;;-145.10;100.00;63789.38;5079645;27;58619;-67
2024/01/19 05:39:00;;;;;;;;;42.00;28.75;;;;;-145.10;100.00;63789.38;5071581;27;45445;-68
2024/01/19 05:41:25;;;;;;;;;38.00;31.00;;;;;-145.10;100.00;63789.38;5064546;27;45503;-67
2024/01/19 05:43:50;;;;;;;;;36.50;26.00;;;;;-145.10;100.00;63789.38;5070410;28;45696;-68
2024/01/19 05:46:16;;;;;;;;;47.33;27.67;;;;;-145.10;100.00;63789.38;5077691;27;75965;-67
2024/01/19 05:48:41;;;;;;;;;37.25;32.75;;;;;-145.10;100.00;63789.38;5089131;27;45464;-67
2024/01/19 05:51:12;;;;;;;;;46.50;35.00;;;;;-145.10;100.00;63789.38;5066372;27;45307;-67
2024/01/19 05:53:37;;;;;;;;;39.50;32.75;;;;;-145.10;100.00;63789.38;5077436;27;45523;-68
2024/01/19 05:56:03;;;;;;;;;41.25;28.75;;;;;-145.10;100.00;63789.38;5076133;28;53390;-67
2024/01/19 05:58:28;;;;;;;;;43.75;33.00;;;;;-145.10;100.00;63789.38;5072421;27;45472;-67
2024/01/19 06:00:54;;;;;;;;;44.00;35.67;;;;;-145.10;100.00;63789.38;5072289;27;60656;-67
2024/01/19 06:03:19;;;;;;;;;40.67;34.33;;;;;-145.10;100.00;63789.38;5090888;27;68158;-67
2024/01/19 06:05:44;;;;;;;;;36.33;31.00;;;;;-145.10;100.00;63789.38;5088737;27;72789;-68
2024/01/19 06:08:10;;;;;;;;;42.00;32.75;;;;;-145.10;100.00;63789.38;5069149;27;69823;-67
2024/01/19 06:10:35;;;;;;;;;59.50;43.00;;;;;-145.10;100.00;63789.38;5089692;27;49164;-68
2024/01/19 06:13:00;;;;;;;;;37.33;34.33;;;;;-145.10;100.00;63789.38;5071648;27;66064;-66
2024/01/19 06:15:26;;;;;;;;;49.75;39.25;;;;;-145.10;100.00;63789.38;5065166;27;45254;-68
2024/01/19 06:17:51;;;;;;;;;44.00;37.25;;;;;-145.10;100.00;63789.38;5078195;27;73775;-67
2024/01/19 06:20:16;;;;;;;;;42.00;35.00;;;;;-145.10;100.00;63789.38;5092313;27;64323;-67
2024/01/19 06:22:43;;;;;;;;;50.25;34.50;;;;;-145.10;100.00;63789.38;5081056;27;55424;-68
2024/01/19 06:25:09;;;;;;;;;40.50;31.00;;;;;-145.10;100.00;63789.38;5059586;27;46293;-69
2024/01/19 06:27:34;;;;;;;;;46.50;36.00;;;;;-145.10;100.00;63789.38;5094293;27;45518;-68
2024/01/19 06:29:59;;;;;;;;;38.00;32.75;;;;;-145.10;100.00;63789.38;5088917;27;45560;-68
2024/01/19 06:32:25;;;;;;;;;47.50;32.00;;;;;-145.10;100.00;63789.38;5068703;27;54151;-68
2024/01/19 06:34:50;;;;;;;;;52.50;37.50;;;;;-145.10;100.00;63789.38;5085276;27;45594;-67
2024/01/19 06:37:16;;;;;;;;;42.00;34.50;;;;;-145.10;100.00;63789.38;5085289;27;73141;-68
2024/01/19 06:39:41;;;;;;;;;41.50;32.50;;;;;-145.10;100.00;63789.38;5091149;27;45513;-68
2024/01/19 06:42:06;;;;;;;;;45.00;40.00;;;;;-145.10;100.00;63789.38;5065710;27;45615;-68
2024/01/19 06:44:32;;;;;;;;;40.25;32.25;;;;;-145.10;100.00;63789.38;5089553;27;45471;-68
2024/01/19 06:46:57;;;;;;;;;49.50;39.25;;;;;-145.10;100.00;63789.38;5085954;27;55426;-67
2024/01/19 06:49:22;;;;;;;;;54.00;40.25;;;;;-145.10;100.00;63789.38;5094357;27;45923;-68
2024/01/19 06:51:48;;;;;;;;;41.50;36.50;;;;;-145.10;100.00;63789.38;5091168;27;45391;-68
2024/01/19 06:54:13;;;;;;;;;36.75;32.75;;;;;-145.10;100.00;63789.38;5084100;27;75754;-67
2024/01/19 06:56:38;;;;;;;;;63.67;42.67;;;;;-145.10;100.00;63789.38;5080472;27;72863;-67
2024/01/19 06:59:04;;;;;;;;;49.00;39.00;;;;;-145.10;100.00;63789.38;5082430;27;45390;-67
2024/01/19 07:01:29;;;;;;;;;51.00;37.33;;;;;-145.10;100.00;63789.38;5052525;27;61840;-67
2024/01/19 07:03:55;;;;;;;;;49.00;36.25;;;;;-145.10;100.00;63789.38;5088590;27;45971;-61
2024/01/19 07:06:20;;;;;;;;;53.75;39.50;;;;;-145.10;100.00;63789.38;5092496;27;56758;-67
2024/01/19 07:08:45;;;;;;;;;57.00;45.67;;;;;-145.10;100.00;63789.38;5093101;27;66188;-64
2024/01/19 07:11:11;;;;;;;;;52.25;36.50;;;;;-145.10;100.00;63789.38;5089410;27;70320;-67
2024/01/19 07:13:36;;;;;;;;;56.75;41.00;;;;;-145.10;100.00;63789.38;5066519;27;46301;-64
2024/01/19 07:16:02;;;;;;;;;43.00;35.33;;;;;-145.10;100.00;63789.38;5090464;27;72044;-70
2024/01/19 07:18:28;;;;;;;;;46.75;37.25;;;;;-145.10;100.00;63789.38;5095952;27;45752;-68
2024/01/19 07:20:53;;;;;;;;;51.50;37.25;;;;;-145.10;100.00;63789.38;5061389;27;45438;-66
2024/01/19 07:23:18;;;;;;;;;55.50;42.25;;;;;-145.10;100.00;63789.38;5093087;27;53660;-77
2024/01/19 07:25:44;;;;;;;;;54.00;39.75;;;;;-145.10;100.00;63789.38;5091437;27;45445;-67
2024/01/19 07:28:35;;;;;;;;;44.50;38.00;;;;;1.34;78.54;101540.75;5122854;27;45503;-62
2024/01/19 07:31:01;;;;;;;;;50.33;40.33;;;;;1.33;78.14;101545.03;5064235;27;70066;-63
2024/01/19 07:33:26;;;;;;;;;45.50;34.25;;;;;1.28;77.84;101561.25;5066836;27;45413;-59
2024/01/19 07:35:52;;;;;;;;;44.00;34.50;;;;;1.24;77.82;101555.16;5070738;27;45222;-62
2024/01/19 07:38:18;;;;;;;;;31.25;27.50;;;;;1.20;78.04;101568.78;5065369;27;47036;-62
2024/01/19 07:40:44;;;;;;;;;52.25;38.00;;;;;1.17;77.89;101570.41;5097936;27;45316;-60
2024/01/19 07:43:09;;;;;;;;;44.00;36.50;;;;;1.13;77.93;101567.78;5074811;27;45302;-60
2024/01/19 07:45:34;;;;;;;;;46.50;37.00;;;;;1.11;77.87;101572.00;5070573;27;63263;-61
2024/01/19 07:48:00;;;;;;;;;42.50;36.00;;;;;1.06;78.14;101577.88;5075507;27;46009;-60
2024/01/19 07:50:25;;;;;;;;;43.67;36.33;;;;;1.06;78.15;101583.03;5070872;27;67393;-61
2024/01/19 07:52:51;;;;;;;;;52.00;33.00;;;;;1.07;78.56;101590.81;5074925;27;45448;-61
2024/01/19 07:55:16;;;;;;;;;49.25;40.25;;;;;1.10;78.89;101590.03;5074742;27;45448;-63
2024/01/19 07:57:41;;;;;;;;;40.75;32.75;;;;;1.11;78.60;101597.78;5068299;27;75705;-62
2024/01/19 08:00:08;;;;;;;;;43.67;36.00;;;;;1.10;78.22;101592.59;5065611;28;60631;-61
2024/01/19 08:02:34;;;;;;;;;45.75;37.50;;;;;1.07;78.31;101598.53;5071457;28;45707;-61
2024/01/19 08:04:59;;;;;;;;;44.75;34.75;;;;;1.05;78.03;101609.66;5071235;28;45372;-60
2024/01/19 08:07:26;;;;;;;;;54.33;42.67;;;;;1.06;78.41;101603.66;5073382;27;74341;-59
2024/01/19 08:09:51;;;;;;;;;47.50;36.75;;;;;1.05;78.53;101610.50;5071608;28;45466;-61
2024/01/19 08:12:17;;;;;;;;;48.00;37.50;;;;;1.06;78.50;101613.94;5071443;27;45482;-61
2024/01/19 08:14:42;;;;;;;;;54.00;42.25;;;;;1.08;78.43;101613.19;5072236;27;45253;-62
2024/01/19 08:17:08;;;;;;;;;40.75;30.25;;;;;1.10;78.45;101615.81;5063600;27;45430;-61
2024/01/19 08:19:33;;;;;;;;;52.00;40.25;;;;;1.10;78.74;101623.53;5072590;27;45408;-61
2024/01/19 08:21:59;;;;;;;;;49.75;36.25;;;;;1.10;78.82;101632.13;5064708;28;69428;-60
2024/01/19 08:24:24;;;;;;;;;60.50;43.75;;;;;1.07;78.93;101631.19;5094879;27;72537;-60
2024/01/19 08:26:49;;;;;;;;;62.25;45.50;;;;;1.05;78.92;101640.59;5068280;27;46160;-60
2024/01/19 08:29:15;;;;;;;;;48.00;38.00;;;;;1.05;78.74;101644.03;5065123;28;65560;-59
2024/01/19 08:31:43;;;;;;;;;56.50;44.50;;;;;1.04;79.02;101659.44;5070335;28;45493;-59
2024/01/19 08:34:08;;;;;;;;;54.50;42.00;;;;;1.03;78.81;101656.00;5071558;28;45567;-60
2024/01/19 08:36:39;;;;;;;;;61.25;43.50;;;;;1.01;78.87;101651.63;5073560;27;46076;-58
2024/01/19 08:39:05;;;;;;;;;60.50;42.75;;;;;1.04;78.94;101651.72;5077509;27;45976;-58
2024/01/19 08:41:30;;;;;;;;;57.00;41.33;;;;;1.02;79.11;101651.66;5051285;28;70220;-66
2024/01/19 08:43:55;;;;;;;;;48.00;39.75;;;;;0.98;79.07;101654.13;5049512;28;45595;-64
2024/01/19 08:46:21;;;;;;;;;44.33;34.33;;;;;1.04;79.16;101668.03;5055809;28;69613;-59
2024/01/19 08:48:47;;;;;;;;;49.25;40.00;;;;;1.04;79.03;101670.63;5058173;27;45443;-67
2024/01/19 08:51:20;;;;;;;;;175.25;133.00;;;;;1.08;79.46;101679.31;5053506;28;45484;-66
2024/01/19 08:53:45;;;;;;;;;58.50;45.25;;;;;1.13;79.26;101681.19;5059851;28;45286;-67
2024/01/19 08:56:11;;;;;;;;;47.50;40.75;;;;;1.20;79.29;101684.78;5055195;28;45562;-66
2024/01/19 08:58:37;;;;;;;;;46.00;34.00;;;;;1.23;79.19;101684.00;5058891;28;55356;-65
2024/01/19 09:01:03;;;;;;;;;57.75;41.25;;;;;1.28;79.03;101683.31;5069340;27;45551;-66
2024/01/19 09:03:29;;;;;;;;;53.00;36.75;;;;;1.32;78.83;101690.28;5056727;28;45605;-65
2024/01/19 09:05:54;;;;;;;;;56.50;41.50;;;;;1.31;78.72;101691.13;5057938;28;45421;-69
2024/01/19 09:08:19;;;;;;;;;53.00;45.00;;;;;1.34;78.84;101692.91;5049946;28;73405;-66
2024/01/19 09:10:45;;;;;;;;;42.33;37.67;;;;;1.37;78.54;101705.00;5053610;28;69417;-65
2024/01/19 09:13:10;;;;;;;;;50.75;38.75;;;;;1.39;78.67;101711.09;5049128;28;63110;-66
2024/01/19 09:15:35;;;;;;;;;48.33;38.00;;;;;1.43;78.56;101710.31;5073894;28;72573;-67
2024/01/19 09:18:00;;;;;;;;;44.00;36.33;;;;;1.46;78.56;101707.84;5051774;28;63127;-65
2024/01/19 09:20:26;;;;;;;;;48.75;38.50;;;;;1.50;78.83;101710.50;5059933;28;45274;-71
2024/01/19 09:22:51;;;;;;;;;54.33;42.67;;;;;1.55;78.67;101712.34;5058413;28;72050;-73
2024/01/19 09:25:16;;;;;;;;;49.00;37.00;;;;;1.62;78.86;101717.69;5064091;28;65637;-72
2024/01/19 09:27:42;;;;;;;;;45.00;40.00;;;;;1.64;78.77;101728.94;5061175;28;51573;-72
2024/01/19 09:30:08;;;;;;;;;91.67;66.33;;;;;1.72;78.58;101721.41;5057796;28;67245;-64
2024/01/19 09:32:33;;;;;;;;;56.00;41.50;;;;;1.79;78.83;101717.25;5048219;28;45651;-67
2024/01/19 09:34:58;;;;;;;;;57.75;46.50;;;;;1.86;78.89;101722.63;5090613;27;45329;-68
2024/01/19 09:37:24;;;;;;;;;56.50;41.00;;;;;1.91;78.94;101720.13;5058926;28;45368;-66
2024/01/19 09:39:49;;;;;;;;;52.00;40.67;;;;;1.98;78.89;101732.34;5055796;28;67120;-66
2024/01/19 09:42:24;;;;;;;;;50.25;40.50;;;;;2.07;78.71;101740.34;5059702;28;45377;-61
2024/01/19 09:45:00;;;;;;;;;57.25;42.50;;;;;2.13;78.40;101738.75;5053874;28;45633;-62
2024/01/19 09:47:49;;;;;;;;;48.25;41.25;;;;;2.19;78.06;101737.16;5053951;28;45528;-72
2024/01/19 09:50:18;;;;;;;;;51.75;42.50;;;;;2.25;78.13;101736.44;5058126;28;45367;-66
2024/01/19 09:52:56;;;;;;;;;46.50;40.75;;;;;2.30;77.54;101737.41;5072984;28;45648;-68
2024/01/19 09:55:23;;;;;;;;;53.50;43.00;;;;;2.38;77.63;101745.34;5055259;28;48255;-76
2024/01/19 09:57:49;;;;;;;;;57.75;44.50;;;;;2.45;77.47;101747.22;5036958;28;45865;-74
2024/01/19 10:00:16;;;;;;;;;63.00;42.00;;;;;2.50;77.14;101766.31;5059381;28;45330;-73
2024/01/19 10:02:46;;;;;;;;;47.50;39.75;;;;;2.52;77.15;101749.13;5059086;28;45578;-69
2024/01/19 10:05:13;;;;;;;;;48.25;39.50;;;;;2.58;77.19;101753.53;5039536;28;47629;-70
2024/01/19 10:07:41;;;;;;;;;43.25;36.00;;;;;2.66;76.85;101767.50;5045836;28;45701;-68
2024/01/19 10:10:07;;;;;;;;;58.50;43.50;;;;;2.68;76.74;101762.38;5073354;28;45415;-68
2024/01/19 10:12:33;;;;;;;;;48.50;37.25;;;;;2.77;76.48;101772.91;5058408;28;46478;-72
2024/01/19 10:14:59;;;;;;;;;49.25;40.25;;;;;2.79;76.63;101771.25;5056730;28;47776;-67
2024/01/19 10:17:25;;;;;;;;;53.50;41.00;;;;;2.85;76.24;101777.41;5047881;28;45208;-69
2024/01/19 10:19:52;;;;;;;;;50.50;41.00;;;;;2.89;76.07;101775.78;5058382;28;53989;-69
2024/01/19 10:22:27;;;;;;;;;51.00;43.50;;;;;2.96;75.82;101776.78;5091288;27;58216;-68
2024/01/19 10:25:11;;;;;;;;;54.50;42.75;;;;;3.03;75.53;101779.50;5058615;28;45659;-67
2024/01/19 10:27:47;;;;;;;;;54.50;42.25;;;;;3.09;75.68;101772.72;5040780;28;45357;-68
2024/01/19 10:30:16;;;;;;;;;76.25;59.00;;;;;3.20;75.88;101774.66;5066081;27;45597;-69
2024/01/19 10:32:43;;;;;;;;;66.25;47.00;;;;;3.27;75.30;101774.81;5047461;28;45213;-69
2024/01/19 10:35:20;;;;;;;;;55.00;43.00;;;;;3.32;75.14;101771.47;5056638;28;45409;-69
2024/01/19 10:37:45;;;;;;;;;61.50;45.00;;;;;3.35;75.35;101779.28;5049110;28;45341;-67
2024/01/19 10:40:23;;;;;;;;;54.50;40.25;;;;;3.44;75.04;101778.59;5070237;28;45577;-67
2024/01/19 10:42:53;;;;;;;;;50.25;39.75;;;;;3.52;74.80;101776.16;5061194;28;45341;-67
2024/01/19 10:45:31;;;;;;;;;66.00;53.25;;;;;3.60;75.21;101775.44;5058044;28;45363;-67
2024/01/19 10:47:59;;;;;;;;;68.50;50.25;;;;;3.62;74.65;101785.84;5048236;28;45898;-68
2024/01/19 10:50:26;;;;;;;;;61.25;45.75;;;;;3.63;74.32;101779.81;5058230;28;45364;-68
2024/01/19 10:52:53;;;;;;;;;47.50;39.75;;;;;3.67;74.42;101781.63;5039773;28;45608;-68
2024/01/19 10:55:19;;;;;;;;;59.50;43.00;;;;;3.75;74.11;101777.47;5060821;28;45227;-70
2024/01/19 10:57:45;;;;;;;;;59.75;46.00;;;;;3.83;73.82;101777.59;5053345;28;45480;-69